Flight Track Log - Related Links

Times and Time Zones

All times are in EDT time to prevent confusion due to time zone crossing. See the UCA596 flight status page for this flight to view local times or setup timezone preferences in your user account.

Time Position Orientation Groundspeed Altitude Reporting Facility
EDT Latitude Longitude Course Direction KTS MPH feet Rate Location/Type
Tue 03:05:46 PM 38.9500 -77.5167 North 136 157 1,700  Level Potomac TRACON
Tue 03:06:46 PM 38.9667 -77.5667 293° West 190 219 2,700 1,150 Climbing Potomac TRACON
Tue 03:07:46 PM 39.0000 -77.6333 303° West 193 222 4,000 830 Climbing Potomac TRACON
Tue 03:08:20 PM 39.0081 -77.6672 287° West 218 251 4,000 695 Level Washington Center
Tue 03:09:21 PM 39.0483 -77.7458 303° West 237 273 5,100 1,426 Climbing Washington Center
Tue 03:10:22 PM 39.0878 -77.7603 344° North 192 221 6,900 1,563 Climbing Washington Center
Tue 03:11:00 PM 39.5244 -77.4500 North  Level FlightAware Approximate
Tue 03:11:20 PM 39.1417 -77.7728 350° North 199 229 8,200  Level Washington Center
Tue 03:12:20 PM 39.1936 -77.7903 345° North 199 229 9,600 1,289 Climbing Washington Center
Tue 03:13:21 PM 39.2397 -77.7703 19° North 199 229 10,800 1,240 Climbing Washington Center
Tue 03:14:21 PM 39.2883 -77.7342 30° Northeast 183 211 12,100 1,240 Climbing Washington Center
Tue 03:15:22 PM 39.3347 -77.7006 29° Northeast 183 211 13,300 1,210 Climbing Washington Center
Tue 03:16:20 PM 39.3811 -77.6644 31° Northeast 188 216 14,500 1,160 Climbing Washington Center
Tue 03:17:21 PM 39.4278 -77.6256 33° Northeast 188 216 15,600 1,082 Climbing Washington Center
Tue 03:18:22 PM 39.4764 -77.5892 30° Northeast 188 216 16,700 943 Climbing Washington Center
Tue 03:20:51 PM 39.6033 -77.4861 32° Northeast 199 229 18,900 660 Climbing New York Center
Tue 03:21:51 PM 39.6553 -77.4533 26° Northeast 204 235 19,000 50 Climbing New York Center
Tue 03:22:51 PM 39.7261 -77.4519 North 223 257 19,000  Level New York Center
Tue 03:23:51 PM 39.7928 -77.4528 359° North 251 289 19,000  Level New York Center
Tue 03:24:51 PM 39.8722 -77.4522 360° North 256 295 19,000  Level New York Center
Tue 03:25:51 PM 39.9347 -77.4503 North 251 289 19,000  Level New York Center
Tue 03:26:51 PM 40.0119 -77.4494 360° North 251 289 19,000  Level New York Center
Tue 03:27:51 PM 40.0767 -77.4475 North 251 289 19,000  Level New York Center
Tue 03:28:51 PM 40.1519 -77.4467 360° North 251 289 19,000  Level New York Center
Tue 03:29:51 PM 40.2228 -77.4453 North 251 289 19,000  Level New York Center
Tue 03:30:51 PM 40.2917 -77.4436 North 251 289 19,000  Level New York Center
Tue 03:31:51 PM 40.3606 -77.4447 359° North 251 289 19,000  Level New York Center
Tue 03:32:51 PM 40.4292 -77.4461 359° North 251 289 19,000  Level New York Center
Tue 03:33:51 PM 40.4981 -77.4444 North 251 289 19,000 -100 Level New York Center
Tue 03:34:51 PM 40.5653 -77.4347 North 251 289 18,800 -300 Descending New York Center
Tue 03:35:51 PM 40.6267 -77.3806 34° Northeast 243 280 18,400 -450 Descending New York Center
Tue 03:36:51 PM 40.6903 -77.3264 33° Northeast 263 303 17,900 -450 Descending New York Center
Tue 03:37:51 PM 40.7558 -77.2694 33° Northeast 269 310 17,500 -450 Descending New York Center
Tue 03:38:51 PM 40.8214 -77.2128 33° Northeast 269 310 17,000 -250 Descending New York Center
Tue 03:39:51 PM 40.8850 -77.1583 33° Northeast 269 310 17,000  Level New York Center
Tue 03:40:51 PM 40.9439 -77.1061 34° Northeast 269 310 17,000  Level New York Center
Tue 03:41:51 PM 41.0050 -77.0542 33° Northeast 269 310 17,000  Level New York Center
Tue 03:42:51 PM 41.0664 -76.9992 34° Northeast 264 304 17,000  Level New York Center
Tue 03:43:51 PM 41.1253 -76.9467 34° Northeast 264 304 17,000  Level New York Center
Tue 03:44:51 PM 41.1864 -76.8944 33° Northeast 264 304 17,000  Level New York Center
Tue 03:45:51 PM 41.2453 -76.8444 33° Northeast 264 304 17,000 -500 Level New York Center
Tue 03:46:51 PM 41.3064 -76.7892 34° Northeast 259 298 16,000 -1,100 Descending New York Center
Tue 03:47:51 PM 41.3717 -76.7314 34° Northeast 269 310 14,800 -1,200 Descending New York Center
Tue 03:48:51 PM 41.4394 -76.6711 34° Northeast 275 316 13,600 -900 Descending New York Center
Tue 03:49:51 PM 41.5028 -76.6128 35° Northeast 281 323 13,000 -300 Descending New York Center
Tue 03:50:51 PM 41.5592 -76.5650 32° Northeast 273 314 13,000 -400 Level New York Center
Tue 03:51:51 PM 41.6267 -76.5044 34° Northeast 268 308 12,200 -950 Descending New York Center
Tue 03:52:51 PM 41.6878 -76.4483 34° Northeast 268 308 11,100 -1,200 Descending New York Center
Tue 03:53:51 PM 41.7486 -76.3953 33° Northeast 268 308 9,800 -1,400 Descending New York Center
Tue 03:54:51 PM 41.8028 -76.3469 34° Northeast 268 308 8,300 -1,300 Descending New York Center
Tue 03:55:51 PM 41.8639 -76.2908 34° Northeast 268 308 7,200 -1,150 Descending New York Center
Tue 03:56:51 PM 41.9353 -76.2297 32° Northeast 268 308 6,000 -1,100 Descending New York Center
Tue 03:57:51 PM 42.0006 -76.1711 34° Northeast 268 308 5,000 -700 Descending New York Center
Tue 03:58:51 PM 42.0589 -76.1200 33° Northeast 268 308 4,600 -550 Descending New York Center
Tue 03:59:51 PM 42.1197 -76.0633 35° Northeast 268 308 3,900 -550 Descending New York Center
Tue 04:00:51 PM 42.1831 -76.0433 13° North 248 285 3,500 -500 Descending New York Center
Tue 04:01:51 PM 42.2325 -76.0556 350° North 209 241 2,900 -600 Descending New York Center
Tue 04:02:51 PM 42.2547 -76.0239 47° Northeast 131 151 2,300 -400 Descending New York Center
Tue 04:03:51 PM 42.2522 -75.9900 96° East 78 90 2,100 3,350 Descending New York Center
Tue 04:04:51 PM 42.2636 -75.9628 61° Northeast 78 90 9,000 3,450 Climbing New York Center
Tue 04:05:51 PM 42.2753 -75.9358 60° Northeast 78 90 9,000  Level New York Center
Tue 04:07:00 PM 42.2084 -75.9796 206° Southwest  Level Estimated
Tue 04:14:00 PM 42.2084 -75.9796 35° Northeast  Level Estimated
Tue 04:15:00 PM 42.2084 -75.9796 35° Northeast  Level Estimated
Tue 04:16:00 PM 42.2084 -75.9796 35° Northeast  Level Estimated
Tue 04:17:00 PM 42.2084 -75.9796 35° Northeast  Level Estimated
Tue 04:18:00 PM 42.2084 -75.9796 35° Northeast  Level Estimated
Tue 04:19:00 PM 42.2084 -75.9796 35° Northeast  Level Estimated

Login

Don't have an account? Register now (free) for customized features, flight alerts, and more!